createdAt,value
2024-05-09T00:04:11.603Z,2.88
2024-05-09T00:09:14.849Z,2.65
2024-05-09T00:14:18.194Z,2.25
2024-05-09T00:19:21.835Z,2.80
2024-05-09T00:24:25.132Z,3.00
2024-05-09T00:29:28.568Z,2.70
2024-05-09T00:34:31.961Z,2.42
2024-05-09T00:39:36.410Z,2.67
2024-05-09T00:44:39.626Z,2.97
2024-05-09T00:49:42.986Z,2.60
2024-05-09T00:54:46.377Z,2.42
2024-05-09T00:59:50.033Z,2.88
2024-05-09T01:04:53.795Z,2.78
2024-05-09T01:09:57.057Z,3.13
2024-05-09T01:15:00.150Z,2.88
2024-05-09T01:20:05.944Z,2.90
2024-05-09T01:25:09.673Z,2.67
2024-05-09T01:30:17.434Z,2.88
2024-05-09T01:35:24.431Z,2.83
2024-05-09T01:40:36.390Z,3.03
2024-05-09T01:45:42.823Z,2.70
2024-05-09T01:50:45.959Z,2.72
2024-05-09T01:55:49.213Z,2.88
2024-05-09T02:00:52.442Z,3.33
2024-05-09T02:05:55.714Z,3.08
2024-05-09T02:10:59.000Z,2.90
2024-05-09T02:16:02.216Z,3.17
2024-05-09T02:21:05.546Z,3.47
2024-05-09T02:26:08.788Z,3.80
2024-05-09T02:31:15.186Z,3.10
2024-05-09T02:36:18.684Z,2.95
2024-05-09T02:41:22.097Z,3.25
2024-05-09T02:46:30.039Z,3.00
2024-05-09T02:51:35.750Z,2.97
2024-05-09T02:56:39.275Z,2.70
2024-05-09T03:01:42.934Z,3.80
2024-05-09T03:06:46.429Z,3.20
2024-05-09T03:11:49.759Z,2.80
2024-05-09T03:16:53.059Z,3.53
2024-05-09T03:21:56.192Z,3.30
2024-05-09T03:26:59.336Z,3.08
2024-05-09T03:32:02.866Z,3.60
2024-05-09T03:37:06.170Z,2.67
2024-05-09T03:42:09.416Z,3.60
2024-05-09T03:47:12.829Z,3.20
2024-05-09T03:52:16.149Z,3.45
2024-05-09T03:57:19.214Z,2.97
2024-05-09T04:02:22.344Z,3.58
2024-05-09T04:07:25.785Z,3.27
2024-05-09T04:12:29.049Z,3.33
2024-05-09T04:17:32.538Z,3.33
2024-05-09T04:22:35.866Z,3.95
2024-05-09T04:27:38.940Z,3.35
2024-05-09T04:32:42.220Z,4.07
2024-05-09T04:37:45.770Z,3.95
2024-05-09T04:42:49.349Z,3.78
2024-05-09T04:47:52.547Z,4.38
2024-05-09T04:52:55.773Z,3.97
2024-05-09T04:57:58.900Z,3.83
2024-05-09T05:03:06.074Z,3.80
2024-05-09T05:08:18.057Z,4.40
2024-05-09T05:13:24.161Z,4.15
2024-05-09T05:18:28.799Z,3.40
2024-05-09T05:23:32.259Z,3.47
2024-05-09T05:28:35.572Z,3.80
2024-05-09T05:33:39.440Z,3.40
2024-05-09T05:38:42.767Z,3.50
2024-05-09T05:43:46.161Z,3.60
2024-05-09T05:48:49.613Z,3.30
2024-05-09T05:53:53.282Z,3.55
2024-05-09T05:58:56.511Z,3.40
2024-05-09T06:03:59.990Z,3.55
2024-05-09T06:09:03.628Z,3.83
2024-05-09T06:14:07.050Z,3.73
2024-05-09T06:19:10.699Z,3.35
2024-05-09T06:24:14.019Z,3.55
2024-05-09T06:29:17.289Z,3.45
2024-05-09T06:34:20.886Z,3.10
2024-05-09T06:39:25.014Z,3.70
2024-05-09T06:44:28.337Z,3.30
2024-05-09T06:49:32.054Z,4.50
2024-05-09T06:54:35.356Z,4.97
2024-05-09T06:59:38.717Z,3.17
2024-05-09T07:04:41.997Z,3.30
2024-05-09T07:09:45.392Z,3.38
2024-05-09T07:14:48.738Z,3.55
2024-05-09T07:19:52.658Z,3.72
2024-05-09T07:24:56.159Z,3.40
2024-05-09T07:29:59.470Z,4.13
2024-05-09T07:35:02.778Z,3.95
2024-05-09T07:40:07.684Z,3.40
2024-05-09T07:45:29.675Z,4.32
2024-05-09T07:55:45.093Z,3.60
2024-05-09T08:00:48.694Z,3.15
2024-05-09T08:05:52.225Z,2.83
2024-05-09T08:10:55.639Z,2.83
2024-05-09T08:15:59.016Z,2.90
2024-05-09T08:21:02.362Z,3.20
2024-05-09T08:26:06.254Z,2.88
2024-05-09T08:31:10.706Z,2.90
2024-05-09T08:36:14.571Z,2.67
2024-05-09T08:41:17.717Z,3.00
2024-05-09T08:46:21.147Z,3.00
2024-05-09T08:51:24.521Z,2.70
2024-05-09T08:56:31.065Z,2.38
2024-05-09T09:01:38.042Z,2.42
2024-05-09T09:06:42.363Z,2.85
2024-05-09T09:11:45.681Z,2.50
2024-05-09T09:16:48.919Z,2.42
2024-05-09T09:21:52.098Z,2.92
2024-05-09T09:26:58.907Z,2.88
2024-05-09T09:32:04.294Z,2.95
2024-05-09T09:37:11.861Z,2.47
2024-05-09T09:42:18.978Z,2.58
2024-05-09T09:47:22.564Z,3.08
2024-05-09T09:52:27.642Z,2.13
2024-05-09T09:57:34.015Z,2.80
2024-05-09T10:02:38.006Z,2.97
2024-05-09T10:07:44.019Z,2.50
2024-05-09T10:13:00.861Z,2.65
2024-05-09T10:18:07.871Z,2.65
2024-05-09T10:23:31.312Z,2.85
2024-05-09T10:28:37.207Z,2.60
2024-05-09T10:33:46.034Z,2.72
2024-05-09T10:38:54.658Z,2.50
2024-05-09T10:43:57.745Z,2.50
2024-05-09T10:49:04.218Z,2.63
2024-05-09T10:54:09.362Z,2.93
2024-05-09T10:59:13.782Z,2.80
2024-05-09T11:04:17.593Z,2.65
2024-05-09T11:09:20.949Z,3.10
2024-05-09T11:14:24.102Z,2.70
2024-05-09T11:19:31.689Z,2.47
2024-05-09T11:24:38.089Z,2.78
2024-05-09T11:29:45.111Z,3.05
2024-05-09T11:34:48.224Z,2.70
2024-05-09T11:39:51.368Z,2.22
2024-05-09T11:44:54.538Z,2.40
2024-05-09T11:49:58.279Z,2.58
2024-05-09T11:55:03.054Z,2.55
2024-05-09T12:00:09.666Z,2.95
2024-05-09T12:05:15.378Z,2.67
2024-05-09T12:10:25.995Z,2.50
2024-05-09T12:15:37.464Z,2.00
2024-05-09T12:20:41.675Z,2.75
2024-05-09T12:25:45.100Z,2.50
2024-05-09T12:30:50.399Z,2.83
2024-05-09T12:35:53.857Z,2.50
2024-05-09T12:40:57.218Z,2.15
2024-05-09T12:46:00.607Z,2.45
2024-05-09T12:51:03.880Z,2.47
2024-05-09T12:56:09.491Z,2.45
2024-05-09T13:01:13.243Z,2.30
2024-05-09T13:06:16.686Z,2.40
2024-05-09T13:11:20.066Z,2.60
2024-05-09T13:16:23.576Z,2.60
2024-05-09T13:21:27.459Z,2.47
2024-05-09T13:26:30.614Z,2.67
2024-05-09T13:31:34.059Z,2.50
2024-05-09T13:36:37.460Z,2.40
2024-05-09T13:41:40.718Z,2.20
2024-05-09T13:46:44.076Z,2.38
2024-05-09T13:51:47.559Z,2.40
2024-05-09T13:56:52.510Z,2.22
2024-05-09T14:01:55.911Z,2.38
2024-05-09T14:06:59.316Z,2.50
2024-05-09T14:12:02.561Z,2.20
2024-05-09T14:17:06.047Z,2.20
2024-05-09T14:22:09.485Z,2.40
2024-05-09T14:27:13.066Z,2.25
2024-05-09T14:32:16.661Z,2.72
2024-05-09T14:37:19.927Z,2.00
2024-05-09T14:42:23.518Z,2.67
2024-05-09T14:47:26.814Z,2.70
2024-05-09T14:52:30.163Z,2.35
2024-05-09T14:57:33.487Z,3.05
2024-05-09T15:02:38.334Z,2.30
2024-05-09T15:07:45.594Z,2.10
2024-05-09T15:12:48.948Z,2.03
2024-05-09T15:17:52.721Z,2.42
2024-05-09T15:22:55.962Z,2.35
2024-05-09T15:28:00.010Z,2.10
2024-05-09T15:33:04.414Z,2.20
2024-05-09T15:38:09.577Z,1.80
2024-05-09T15:43:13.185Z,2.17
2024-05-09T15:48:16.719Z,1.95
2024-05-09T15:53:19.996Z,2.25
2024-05-09T15:58:23.448Z,2.07
2024-05-09T16:03:26.806Z,1.90
2024-05-09T16:08:30.170Z,2.03
2024-05-09T16:13:33.521Z,2.00
2024-05-09T16:18:37.158Z,2.22
2024-05-09T16:23:40.938Z,2.33
2024-05-09T16:28:44.174Z,2.45
2024-05-09T16:33:47.968Z,1.90
2024-05-09T16:38:51.453Z,2.08
2024-05-09T16:43:55.611Z,1.98
2024-05-09T16:48:59.308Z,1.93
2024-05-09T16:54:02.564Z,1.90
2024-05-09T16:59:06.423Z,1.97
2024-05-09T17:04:09.953Z,2.20
2024-05-09T17:09:15.659Z,2.00
2024-05-09T17:14:21.747Z,2.00
2024-05-09T17:19:25.187Z,2.00
2024-05-09T17:24:28.603Z,2.00
2024-05-09T17:29:32.113Z,2.30
2024-05-09T17:34:36.335Z,2.10
2024-05-09T17:39:40.262Z,2.40
2024-05-09T17:44:45.355Z,2.17
2024-05-09T17:49:48.878Z,1.93
2024-05-09T17:54:52.301Z,2.10
2024-05-09T17:59:56.465Z,2.17
2024-05-09T18:05:02.042Z,2.10
2024-05-09T18:10:10.169Z,2.38
2024-05-09T18:15:19.293Z,2.00
2024-05-09T18:20:32.740Z,2.00
2024-05-09T18:25:44.635Z,2.13
2024-05-09T18:30:48.110Z,2.37
2024-05-09T18:35:51.519Z,2.50
2024-05-09T18:40:55.090Z,2.50
2024-05-09T18:45:59.422Z,2.55
2024-05-09T18:51:02.918Z,3.30
2024-05-09T18:56:07.435Z,3.70
2024-05-09T19:01:11.870Z,3.95
2024-05-09T19:06:15.270Z,3.63
2024-05-09T19:11:18.661Z,3.60
2024-05-09T19:16:21.975Z,3.50
2024-05-09T19:21:25.188Z,3.20
2024-05-09T19:26:28.594Z,3.40
2024-05-09T19:31:32.083Z,3.63
2024-05-09T19:36:36.238Z,3.33
2024-05-09T19:41:39.551Z,3.17
2024-05-09T19:46:42.771Z,3.00
2024-05-09T19:51:46.067Z,3.50
2024-05-09T19:56:49.354Z,4.37
2024-05-09T20:01:52.781Z,3.83
2024-05-09T20:06:56.067Z,3.80
2024-05-09T20:11:59.391Z,4.23
2024-05-09T20:17:02.711Z,4.60
2024-05-09T20:22:06.064Z,4.17
2024-05-09T20:27:09.319Z,4.10
2024-05-09T20:32:12.831Z,4.00
2024-05-09T20:37:16.137Z,3.80
2024-05-09T20:42:19.586Z,4.05
2024-05-09T20:47:22.931Z,4.00
2024-05-09T20:52:26.531Z,3.88
2024-05-09T20:57:29.844Z,4.18
2024-05-09T21:02:33.152Z,3.97
2024-05-09T21:07:36.609Z,4.38
2024-05-09T21:12:39.814Z,4.07
2024-05-09T21:17:43.146Z,4.40
2024-05-09T21:22:46.390Z,4.25
2024-05-09T21:27:49.658Z,4.00
2024-05-09T21:32:52.907Z,4.20
2024-05-09T21:37:56.153Z,4.37
2024-05-09T21:42:59.255Z,4.43
2024-05-09T21:48:06.662Z,3.85
2024-05-09T21:53:12.856Z,4.30
2024-05-09T21:58:16.864Z,4.20
2024-05-09T22:03:20.150Z,4.40
2024-05-09T22:08:23.382Z,4.45
2024-05-09T22:13:26.783Z,3.83
2024-05-09T22:18:30.226Z,4.00
2024-05-09T22:23:33.427Z,3.75
2024-05-09T22:28:36.580Z,4.27
2024-05-09T22:33:40.964Z,4.03
2024-05-09T22:38:45.153Z,4.05
2024-05-09T22:43:48.277Z,3.97
2024-05-09T22:48:51.535Z,3.78
2024-05-09T22:53:54.757Z,4.30
2024-05-09T22:58:58.764Z,4.45
2024-05-09T23:04:03.784Z,3.50
2024-05-09T23:09:09.803Z,4.70
2024-05-09T23:14:13.181Z,4.55
2024-05-09T23:19:16.342Z,4.37
2024-05-09T23:24:19.511Z,4.10
2024-05-09T23:29:22.686Z,3.75
2024-05-09T23:34:25.853Z,3.67
2024-05-09T23:39:29.017Z,3.97
2024-05-09T23:44:32.298Z,3.83
2024-05-09T23:49:35.637Z,3.85
2024-05-09T23:54:38.890Z,4.15
2024-05-09T23:59:42.205Z,3.97
